Time;durP1;ratioP1;P1;durP2;ratioP2;P2;SDS_P1;SDS_P2;PMS_P1;PMS_P2;Temp;Humidity;BMP_temperature;BMP_pressure;BME280_temperature;BME280_humidity;BME280_pressure;Samples;Min_cycle;Max_cycle;Signal;HPM_P1;HPM_P2
2022/08/11 00:02:34;;;;;;;2.00;1.70;;;18.10;80.50;;;;;;5032204;28;20297;-63
2022/08/11 00:05:09;;;;;;;2.42;1.70;;;18.20;80.60;;;;;;5031955;28;20209;-64
2022/08/11 00:07:44;;;;;;;2.25;1.60;;;18.20;80.60;;;;;;5031985;28;20665;-64
2022/08/11 00:10:13;;;;;;;4.63;1.75;;;18.20;80.70;;;;;;5032130;28;20240;-63
2022/08/11 00:12:41;;;;;;;4.57;1.73;;;18.20;80.60;;;;;;5031841;28;20210;-64
2022/08/11 00:15:09;;;;;;;3.85;1.77;;;18.20;80.90;;;;;;5032065;28;20206;-64
2022/08/11 00:17:37;;;;;;;5.88;1.60;;;18.20;80.90;;;;;;5032243;28;20226;-64
2022/08/11 00:20:07;;;;;;;2.78;1.50;;;18.20;80.90;;;;;;5032486;28;20206;-64
2022/08/11 00:22:36;;;;;;;2.42;1.88;;;18.10;81.40;;;;;;5032213;28;20206;-65
2022/08/11 00:25:11;;;;;;;2.30;1.73;;;18.00;81.60;;;;;;5031756;28;20666;-63
2022/08/11 00:27:40;;;;;;;3.90;1.70;;;18.00;81.90;;;;;;5031509;28;20202;-63
2022/08/11 00:30:09;;;;;;;2.55;1.73;;;18.00;81.90;;;;;;5031912;28;20218;-65
2022/08/11 00:32:38;;;;;;;2.60;1.88;;;18.00;82.20;;;;;;5031784;28;20598;-65
2022/08/11 00:35:07;;;;;;;4.53;1.77;;;18.00;82.70;;;;;;5031694;28;20206;-65
2022/08/11 00:37:35;;;;;;;4.15;1.60;;;17.90;83.00;;;;;;5031205;28;20676;-62
2022/08/11 00:40:06;;;;;;;3.75;1.80;;;17.90;83.30;;;;;;5031533;28;20285;-63
2022/08/11 00:42:46;;;;;;;2.78;2.00;;;17.80;83.70;;;;;;5031593;28;20217;-64
2022/08/11 00:45:27;;;;;;;4.22;1.88;;;17.90;83.70;;;;;;5031813;28;20210;-64
2022/08/11 00:48:03;;;;;;;4.55;2.25;;;17.90;84.00;;;;;;5031087;28;20209;-64
2022/08/11 00:50:43;;;;;;;4.95;1.70;;;17.80;84.30;;;;;;5031497;28;20296;-64
2022/08/11 00:53:30;;;;;;;3.53;1.55;;;17.80;84.30;;;;;;5031696;28;20248;-63
2022/08/11 00:56:29;;;;;;;2.28;1.60;;;17.70;84.90;;;;;;5031466;28;20748;-66
2022/08/11 00:59:26;;;;;;;4.85;1.88;;;17.70;85.50;;;;;;5031629;28;20796;-64
2022/08/11 01:01:59;;;;;;;2.65;1.77;;;17.70;85.80;;;;;;5031557;28;20210;-64
2022/08/11 01:05:03;;;;;;;2.13;1.92;;;17.60;86.30;;;;;;5031477;28;20207;-64
2022/08/11 01:07:57;;;;;;;1.65;1.55;;;17.60;86.80;;;;;;5031345;28;20213;-64
2022/08/11 01:11:01;;;;;;;4.22;1.98;;;17.50;87.30;;;;;;5022536;28;20222;-64
2022/08/11 01:14:04;;;;;;;2.80;1.80;;;17.50;87.60;;;;;;5019728;28;20210;-63
2022/08/11 01:16:58;;;;;;;5.35;1.90;;;17.40;87.90;;;;;;5031937;28;20648;-64
2022/08/11 01:20:03;;;;;;;2.58;2.00;;;17.40;88.60;;;;;;5034702;28;20312;-63
2022/08/11 01:23:13;;;;;;;5.40;2.00;;;17.40;89.70;;;;;;5004208;28;20256;-64
2022/08/11 01:26:16;;;;;;;3.75;2.00;;;17.30;89.30;;;;;;4999291;28;20632;-65
2022/08/11 01:29:19;;;;;;;3.13;1.90;;;17.20;89.70;;;;;;5035105;28;20221;-64
2022/08/11 01:32:13;;;;;;;2.55;2.05;;;17.20;89.90;;;;;;5034726;28;20213;-64
2022/08/11 01:35:30;;;;;;;2.83;1.80;;;17.30;89.70;;;;;;5035005;28;20214;-64
2022/08/11 01:38:44;;;;;;;4.80;2.38;;;17.30;89.40;;;;;;5034443;28;20226;-65
2022/08/11 01:44:36;;;;;;;3.00;2.30;;;17.30;89.50;;;;;;5034579;28;20588;-64
2022/08/11 01:44:36;;;;;;;3.70;2.20;;;17.30;89.90;;;;;;5034556;28;20202;-63
2022/08/11 01:47:49;;;;;;;4.07;2.20;;;17.20;89.80;;;;;;5034378;28;20225;-63
2022/08/11 01:50:14;;;;;;;3.05;2.13;;;17.30;89.40;;;;;;5034354;28;20223;-63
2022/08/11 01:53:03;;;;;;;3.00;2.22;;;17.40;88.80;;;;;;5034543;28;20210;-63
2022/08/11 01:55:38;;;;;;;2.75;2.10;;;17.60;88.20;;;;;;5034432;28;20214;-62
2022/08/11 01:58:16;;;;;;;4.35;2.53;;;17.70;87.80;;;;;;5034059;28;20287;-63
2022/08/11 02:00:52;;;;;;;2.90;2.25;;;17.80;87.20;;;;;;5034470;28;20201;-63
2022/08/11 02:03:27;;;;;;;4.30;2.47;;;17.70;87.20;;;;;;5034489;28;20210;-63
2022/08/11 02:06:53;;;;;;;2.72;2.33;;;17.80;88.30;;;;;;5034547;28;20216;-63
2022/08/11 02:09:02;;;;;;;5.50;2.38;;;17.90;87.50;;;;;;5033961;28;20573;-62
2022/08/11 02:11:30;;;;;;;3.92;2.30;;;17.90;88.30;;;;;;5034157;28;20221;-63
2022/08/11 02:14:07;;;;;;;2.78;2.42;;;17.90;87.60;;;;;;5033747;28;20229;-63
2022/08/11 02:16:55;;;;;;;6.05;2.22;;;17.80;88.20;;;;;;5033856;28;20631;-64
2022/08/11 02:25:23;;;;;;;2.65;2.22;;;17.50;89.40;;;;;;5033669;28;20681;-63
2022/08/11 02:27:57;;;;;;;3.17;2.15;;;17.50;90.10;;;;;;5033378;28;20202;-63
2022/08/11 02:30:27;;;;;;;2.75;2.22;;;17.40;90.50;;;;;;5033575;28;20589;-64
2022/08/11 02:33:24;;;;;;;3.33;2.28;;;17.30;90.60;;;;;;5033476;28;20214;-64
2022/08/11 02:36:01;;;;;;;2.80;2.10;;;17.30;90.80;;;;;;5033574;28;20206;-63
2022/08/11 02:38:34;;;;;;;3.00;2.40;;;17.30;91.20;;;;;;5033045;28;20230;-63
2022/08/11 02:42:21;;;;;;;5.53;2.47;;;17.20;91.20;;;;;;5033166;28;20214;-64
2022/08/11 02:44:20;;;;;;;2.95;2.65;;;17.10;91.60;;;;;;5033122;28;20228;-63
2022/08/11 02:46:56;;;;;;;2.97;2.40;;;17.00;91.90;;;;;;5032844;28;20611;-63
2022/08/11 02:49:53;;;;;;;2.97;2.40;;;17.00;91.90;;;;;;5032912;28;20237;-64
2022/08/11 02:52:28;;;;;;;7.07;2.60;;;17.00;91.80;;;;;;5033211;28;20685;-63
2022/08/11 02:55:19;;;;;;;4.25;2.35;;;17.00;91.90;;;;;;5033138;28;20217;-64
2022/08/11 02:57:53;;;;;;;3.22;2.50;;;17.00;91.90;;;;;;5030766;28;20300;-63
2022/08/11 03:00:20;;;;;;;3.15;2.40;;;17.00;91.90;;;;;;5032972;28;20210;-66
2022/08/11 03:02:58;;;;;;;2.92;2.40;;;17.00;92.00;;;;;;5033031;28;20210;-63
2022/08/11 03:05:40;;;;;;;2.70;2.35;;;17.00;92.00;;;;;;5032920;28;20217;-63
2022/08/11 03:08:23;;;;;;;3.60;2.30;;;17.00;92.20;;;;;;5032636;28;20217;-63
2022/08/11 03:16:51;;;;;;;5.30;2.45;;;16.90;92.90;;;;;;5032646;28;20201;-65
2022/08/11 03:19:26;;;;;;;4.53;2.88;;;16.90;93.10;;;;;;5032866;28;20317;-65
2022/08/11 03:22:01;;;;;;;2.80;2.35;;;16.90;93.20;;;;;;5032590;28;20220;-66
2022/08/11 03:24:37;;;;;;;4.47;2.60;;;16.90;93.30;;;;;;5032780;28;20580;-65
2022/08/11 03:27:10;;;;;;;6.38;2.75;;;16.90;93.50;;;;;;5032299;28;20248;-65
2022/08/11 03:29:44;;;;;;;3.28;2.30;;;16.90;93.60;;;;;;5032571;28;20227;-66
2022/08/11 03:32:24;;;;;;;2.50;2.20;;;16.80;93.80;;;;;;5032627;28;20209;-65
2022/08/11 03:34:53;;;;;;;2.90;2.55;;;16.80;93.90;;;;;;5032216;28;20206;-63
2022/08/11 03:37:51;;;;;;;2.60;2.20;;;16.80;94.00;;;;;;5032020;28;20206;-63
2022/08/11 03:43:33;;;;;;;4.25;2.60;;;16.70;94.20;;;;;;5032459;28;20730;-64
2022/08/11 03:46:07;;;;;;;3.53;2.80;;;16.70;94.40;;;;;;5032585;28;20213;-65
2022/08/11 03:48:47;;;;;;;3.88;2.60;;;16.60;94.60;;;;;;5059570;23;20302;-62
2022/08/11 03:51:22;;;;;;;2.75;2.45;;;16.60;94.70;;;;;;5044933;28;20434;-62
2022/08/11 03:54:06;;;;;;;3.03;2.40;;;16.60;94.70;;;;;;5053561;28;20295;-62
2022/08/11 03:57:03;;;;;;;3.90;2.80;;;16.60;94.90;;;;;;5053468;28;20664;-62
2022/08/11 04:02:41;;;;;;;4.83;2.40;;;16.50;94.90;;;;;;5131723;27;20572;-61
2022/08/11 04:05:46;;;;;;;4.00;2.40;;;16.60;95.10;;;;;;5112679;27;20200;-62
2022/08/11 04:08:45;;;;;;;3.97;2.50;;;16.60;95.10;;;;;;5110036;28;20427;-62
2022/08/11 04:11:28;;;;;;;5.15;2.67;;;16.60;95.10;;;;;;5091922;28;20283;-62
2022/08/11 04:17:18;;;;;;;4.77;2.57;;;16.60;95.20;;;;;;5090877;28;20199;-62
2022/08/11 04:20:12;;;;;;;3.35;2.80;;;16.60;95.20;;;;;;5091043;28;20315;-62
2022/08/11 04:23:02;;;;;;;2.83;2.53;;;16.70;95.20;;;;;;5091304;28;20298;-62
2022/08/11 04:26:05;;;;;;;4.40;2.53;;;16.80;95.20;;;;;;5090982;28;20243;-62
2022/08/11 04:29:03;;;;;;;8.43;2.70;;;16.80;95.00;;;;;;5090832;28;20224;-62
2022/08/11 04:31:38;;;;;;;3.25;2.40;;;16.90;94.80;;;;;;5090471;28;20296;-62
2022/08/11 04:34:34;;;;;;;3.35;2.22;;;17.00;94.70;;;;;;5093225;28;20219;-62
2022/08/11 04:37:36;;;;;;;2.92;2.45;;;17.00;94.60;;;;;;5092618;28;20207;-62
2022/08/11 04:40:34;;;;;;;7.10;2.40;;;17.10;94.60;;;;;;5069486;28;20235;-62
2022/08/11 04:43:46;;;;;;;3.83;2.50;;;17.20;94.50;;;;;;5091654;28;20212;-62
2022/08/11 04:46:49;;;;;;;5.63;2.50;;;17.20;94.40;;;;;;5090573;28;20208;-62
2022/08/11 05:02:53;;;;;;;6.50;3.17;;;17.40;94.40;;;;;;5090687;28;20269;-62
2022/08/11 05:05:31;;;;;;;5.60;2.90;;;17.50;94.30;;;;;;5090523;28;20218;-62
2022/08/11 05:08:55;;;;;;;2.67;2.40;;;17.60;94.00;;;;;;5089824;28;20207;-63
2022/08/11 05:11:40;;;;;;;5.10;3.40;;;17.80;93.90;;;;;;5046721;28;20739;-65
2022/08/11 05:37:02;;;;;;;4.47;2.65;;;19.00;91.40;;;;;;5076108;28;20204;-63
2022/08/11 05:56:19;;;;;;;2.45;1.92;;;29.20;59.20;;;;;;5075934;28;20212;-63
2022/08/11 05:58:49;;;;;;;4.68;2.08;;;30.70;55.50;;;;;;5075392;28;20598;-63
2022/08/11 06:01:24;;;;;;;4.88;2.10;;;31.80;53.20;;;;;;5075179;28;20224;-64
2022/08/11 06:06:40;;;;;;;4.90;2.00;;;33.90;48.60;;;;;;5075554;28;20200;-63
2022/08/11 06:09:07;;;;;;;3.40;1.90;;;34.10;47.10;;;;;;5075328;28;20271;-63
2022/08/11 06:11:39;;;;;;;5.60;1.92;;;34.40;46.00;;;;;;5075223;28;20201;-64
2022/08/11 06:14:07;;;;;;;8.40;4.32;;;35.10;45.30;;;;;;5075287;28;20216;-60
2022/08/11 06:16:36;;;;;;;6.13;2.95;;;35.70;44.10;;;;;;5075447;28;20201;-61
2022/08/11 06:19:03;;;;;;;3.58;2.47;;;36.30;43.10;;;;;;5074561;28;20220;-61
2022/08/11 06:21:34;;;;;;;5.40;2.10;;;36.80;42.50;;;;;;5074496;28;20228;-61
2022/08/11 06:24:06;;;;;;;3.67;2.10;;;37.40;41.40;;;;;;5073591;28;20204;-61
2022/08/11 06:26:33;;;;;;;3.95;2.00;;;37.80;40.60;;;;;;5074706;28;20683;-62
2022/08/11 06:29:02;;;;;;;5.88;3.60;;;38.30;40.10;;;;;;5074039;28;20248;-62
2022/08/11 06:31:30;;;;;;;3.50;2.80;;;38.70;39.00;;;;;;5074520;28;20197;-61
2022/08/11 06:34:11;;;;;;;6.15;2.92;;;38.80;39.10;;;;;;5074319;28;20216;-61
2022/08/11 06:36:46;;;;;;;4.38;2.10;;;39.20;38.80;;;;;;5074364;28;20227;-60
2022/08/11 06:39:21;;;;;;;5.53;2.05;;;39.60;38.20;;;;;;5074787;28;20234;-61
2022/08/11 06:41:52;;;;;;;2.67;1.98;;;39.90;38.00;;;;;;5074877;28;20696;-61
2022/08/11 06:44:27;;;;;;;5.63;1.90;;;40.20;36.80;;;;;;5074713;28;20699;-62
2022/08/11 06:46:59;;;;;;;6.07;1.90;;;40.00;36.50;;;;;;5075083;28;20307;-60
2022/08/11 06:52:29;;;;;;;2.75;1.90;;;39.60;36.90;;;;;;5075150;28;20203;-61
2022/08/11 06:55:05;;;;;;;2.47;1.95;;;39.30;37.00;;;;;;5074700;28;20676;-61
2022/08/11 07:00:28;;;;;;;2.47;1.73;;;39.20;37.20;;;;;;5075382;28;20232;-61
2022/08/11 07:03:00;;;;;;;2.97;1.95;;;39.30;36.80;;;;;;5074645;28;20274;-61
2022/08/11 07:05:42;;;;;;;2.88;1.90;;;39.40;36.80;;;;;;5075658;28;20213;-61
2022/08/11 07:28:54;;;;;;;3.08;1.98;;;39.80;35.90;;;;;;5011995;28;20664;-62
2022/08/11 07:29:15;;;;;;;3.67;2.10;;;39.80;35.30;;;;;;5069566;28;20277;-60
2022/08/11 07:31:48;;;;;;;4.53;2.10;;;39.30;35.70;;;;;;5074633;28;20228;-61
2022/08/11 07:34:20;;;;;;;3.15;1.80;;;38.30;37.70;;;;;;5074493;28;20211;-61
2022/08/11 07:36:52;;;;;;;2.53;1.90;;;38.10;37.20;;;;;;5074007;28;20678;-61
2022/08/11 07:39:21;;;;;;;3.85;2.38;;;38.10;37.00;;;;;;5074526;28;20232;-61
2022/08/11 07:41:50;;;;;;;5.78;1.77;;;37.90;37.10;;;;;;5074959;28;20221;-60
2022/08/11 07:44:17;;;;;;;2.63;1.70;;;37.70;37.00;;;;;;5075431;28;20201;-60
2022/08/11 07:52:27;;;;;;;5.70;2.08;;;37.50;37.30;;;;;;5088999;28;20230;-59
2022/08/11 07:54:55;;;;;;;2.75;1.80;;;37.70;37.30;;;;;;5074727;28;20227;-59
2022/08/11 08:19:24;;;;;;;3.72;1.90;;;38.10;36.30;;;;;;5073616;28;20718;-60
2022/08/11 08:21:52;;;;;;;3.20;1.70;;;37.80;36.50;;;;;;5072722;28;20256;-64
2022/08/11 08:24:21;;;;;;;2.63;1.67;;;37.50;36.80;;;;;;5072649;28;20212;-62
2022/08/11 08:26:58;;;;;;;3.15;1.60;;;37.80;36.10;;;;;;5073798;28;20201;-63
2022/08/11 08:32:15;;;;;;;1.92;1.67;;;36.80;36.50;;;;;;5073481;28;20208;-62
2022/08/11 08:34:42;;;;;;;3.28;1.90;;;36.20;37.40;;;;;;5073156;28;20205;-65
2022/08/11 08:37:09;;;;;;;4.93;2.10;;;35.50;38.80;;;;;;5073414;28;20212;-66
2022/08/11 08:39:38;;;;;;;4.13;1.80;;;34.40;39.90;;;;;;5074452;28;20221;-63
2022/08/11 08:42:11;;;;;;;3.58;1.67;;;32.60;41.30;;;;;;5072996;28;20228;-62
2022/08/11 08:44:42;;;;;;;3.10;1.80;;;30.90;44.20;;;;;;5072785;28;20251;-63
2022/08/11 08:47:14;;;;;;;6.15;1.70;;;29.70;45.80;;;;;;5072424;28;20303;-63
2022/08/11 08:49:49;;;;;;;2.80;1.77;;;28.80;47.40;;;;;;5075520;28;20220;-64
2022/08/11 08:52:19;;;;;;;2.50;1.95;;;28.10;47.90;;;;;;5075565;28;20200;-62
2022/08/11 08:54:52;;;;;;;2.33;1.85;;;27.70;48.80;;;;;;5075813;28;20205;-61
2022/08/11 08:57:21;;;;;;;4.93;1.90;;;27.40;49.00;;;;;;5074663;28;20205;-61
2022/08/11 08:59:50;;;;;;;3.40;1.85;;;27.20;49.40;;;;;;5074179;28;20639;-60
2022/08/11 09:02:18;;;;;;;2.97;1.95;;;27.00;49.70;;;;;;5073864;28;20311;-61
2022/08/11 09:04:46;;;;;;;3.55;1.73;;;26.90;49.80;;;;;;5074553;28;20205;-61
2022/08/11 09:07:16;;;;;;;5.22;1.70;;;26.70;50.20;;;;;;5074349;28;20208;-61
2022/08/11 09:09:44;;;;;;;2.75;1.60;;;26.70;50.40;;;;;;5074147;28;20227;-61
2022/08/11 09:12:13;;;;;;;2.25;1.95;;;26.70;49.90;;;;;;5074328;28;20421;-61
2022/08/11 09:15:02;;;;;;;3.58;1.52;;;26.70;50.10;;;;;;5073774;28;20209;-61
2022/08/11 09:17:33;;;;;;;3.53;1.75;;;26.70;50.10;;;;;;5074064;28;20647;-60
2022/08/11 09:20:02;;;;;;;2.83;1.55;;;26.80;49.50;;;;;;5074222;28;20232;-61
2022/08/11 09:28:03;;;;;;;3.70;2.00;;;27.10;50.00;;;;;;5074755;28;20580;-61
2022/08/11 09:30:31;;;;;;;4.20;1.80;;;27.10;49.40;;;;;;5075016;28;20208;-62
2022/08/11 09:33:01;;;;;;;5.50;1.58;;;27.20;49.30;;;;;;5074869;28;20783;-61
2022/08/11 09:35:30;;;;;;;2.40;1.50;;;27.30;49.00;;;;;;5074211;28;20201;-61
2022/08/11 09:40:45;;;;;;;2.50;1.83;;;27.40;49.10;;;;;;5074980;28;20200;-64
2022/08/11 09:46:16;;;;;;;2.92;1.60;;;27.50;48.20;;;;;;5032248;28;20615;-61
2022/08/11 09:48:46;;;;;;;4.20;1.30;;;27.80;48.30;;;;;;5031742;28;20268;-59
2022/08/11 09:51:14;;;;;;;2.40;1.80;;;28.00;48.50;;;;;;5051325;28;20213;-60
2022/08/11 09:53:44;;;;;;;5.30;1.83;;;28.10;48.60;;;;;;5074165;28;20205;-60
2022/08/11 09:59:03;;;;;;;3.92;1.60;;;28.30;46.60;;;;;;5073776;28;20211;-64
2022/08/11 10:01:31;;;;;;;1.88;1.50;;;28.40;46.40;;;;;;5074760;28;20621;-60
2022/08/11 10:04:01;;;;;;;2.22;1.50;;;28.70;46.20;;;;;;5074069;28;20238;-61
2022/08/11 10:09:19;;;;;;;4.18;1.55;;;29.10;45.00;;;;;;5074565;28;20224;-62
2022/08/11 10:11:47;;;;;;;1.92;1.50;;;28.80;45.70;;;;;;5073994;28;20243;-61
2022/08/11 10:17:06;;;;;;;3.35;1.98;;;28.60;45.30;;;;;;5073818;28;20343;-61
2022/08/11 10:19:34;;;;;;;2.25;1.35;;;28.30;46.40;;;;;;5073645;28;20225;-61
2022/08/11 10:27:32;;;;;;;3.08;1.55;;;28.50;45.20;;;;;;5073215;28;20200;-61
2022/08/11 10:35:32;;;;;;;3.25;1.60;;;28.50;45.90;;;;;;5073525;28;20234;-61
2022/08/11 10:38:00;;;;;;;3.33;1.83;;;28.50;45.50;;;;;;5073043;28;20591;-61
2022/08/11 10:40:28;;;;;;;4.82;1.50;;;28.60;45.20;;;;;;5073405;28;20286;-61
2022/08/11 10:43:05;;;;;;;1.83;1.60;;;28.80;44.20;;;;;;5073532;28;20676;-61
2022/08/11 10:48:22;;;;;;;3.83;1.50;;;28.60;44.90;;;;;;5073240;28;20211;-61
2022/08/11 10:59:08;;;;;;;3.35;1.60;;;28.50;44.50;;;;;;5072685;28;20300;-61
2022/08/11 11:01:41;;;;;;;3.40;1.55;;;28.50;44.40;;;;;;5073033;28;20312;-61
2022/08/11 11:04:12;;;;;;;5.80;1.45;;;28.60;44.10;;;;;;5073036;28;20201;-61
2022/08/11 11:06:48;;;;;;;2.67;1.50;;;28.60;44.10;;;;;;5072925;28;20216;-61
2022/08/11 11:09:18;;;;;;;2.45;1.50;;;28.70;43.60;;;;;;5072625;28;20232;-61
2022/08/11 11:20:23;;;;;;;3.22;1.60;;;28.90;43.50;;;;;;5072974;28;20602;-60
2022/08/11 11:22:54;;;;;;;4.25;1.75;;;29.00;43.80;;;;;;5072659;28;20224;-61
2022/08/11 11:25:29;;;;;;;2.08;1.52;;;29.10;43.50;;;;;;5072833;28;20291;-61
2022/08/11 11:28:26;;;;;;;1.80;1.40;;;29.20;43.90;;;;;;5072362;28;20203;-61
2022/08/11 11:31:03;;;;;;;1.60;1.50;;;29.40;43.30;;;;;;5072485;28;20669;-61
2022/08/11 11:33:47;;;;;;;1.80;1.40;;;29.40;43.50;;;;;;5072457;28;20201;-62
2022/08/11 11:36:22;;;;;;;2.50;1.50;;;29.40;42.60;;;;;;5072510;28;20216;-61
2022/08/11 11:38:49;;;;;;;4.22;1.30;;;29.40;42.90;;;;;;5072048;28;20270;-61
2022/08/11 11:41:25;;;;;;;2.60;1.45;;;29.50;42.90;;;;;;5072559;28;20209;-60
2022/08/11 11:43:53;;;;;;;3.08;1.60;;;29.60;42.90;;;;;;5072248;28;20646;-60
2022/08/11 11:46:20;;;;;;;1.92;1.60;;;29.70;42.80;;;;;;5072490;28;20232;-60
2022/08/11 11:48:49;;;;;;;1.95;1.45;;;29.90;42.60;;;;;;5072043;28;20233;-60
2022/08/11 11:51:16;;;;;;;3.17;1.70;;;30.20;42.00;;;;;;5072403;28;20212;-60
2022/08/11 11:53:44;;;;;;;2.35;1.50;;;30.10;42.10;;;;;;5072467;28;20239;-60
2022/08/11 11:56:12;;;;;;;2.08;1.42;;;30.10;42.20;;;;;;5072247;28;20687;-60
2022/08/11 12:01:27;;;;;;;3.47;1.40;;;30.30;41.90;;;;;;5054169;28;20232;-61
2022/08/11 12:03:57;;;;;;;4.57;1.60;;;30.30;41.70;;;;;;5072274;28;20228;-61
2022/08/11 12:06:26;;;;;;;2.67;1.50;;;30.20;41.40;;;;;;5072367;28;20205;-61
2022/08/11 12:08:55;;;;;;;2.70;1.40;;;30.00;41.50;;;;;;5071782;28;20224;-61
2022/08/11 12:14:10;;;;;;;1.85;1.30;;;30.00;41.50;;;;;;5072005;28;20196;-61
2022/08/11 12:16:39;;;;;;;3.88;1.65;;;30.10;41.70;;;;;;5071933;28;20616;-62
2022/08/11 12:19:14;;;;;;;2.72;1.40;;;30.10;41.60;;;;;;5071881;28;20224;-62
2022/08/11 12:27:19;;;;;;;3.15;1.52;;;30.20;41.10;;;;;;5072245;28;20204;-62
2022/08/11 12:27:23;;;;;;;3.92;1.30;;;30.40;40.50;;;;;;5075917;28;20678;-62
2022/08/11 12:29:53;;;;;;;1.73;1.20;;;30.40;40.10;;;;;;5075858;28;20571;-62
2022/08/11 12:32:21;;;;;;;2.28;1.33;;;30.40;39.80;;;;;;5075729;28;20204;-61
2022/08/11 12:34:49;;;;;;;1.92;1.10;;;30.40;39.60;;;;;;5075816;28;20209;-62
2022/08/11 12:37:22;;;;;;;3.63;1.60;;;30.40;39.50;;;;;;5075935;28;20209;-62
2022/08/11 12:45:30;;;;;;;3.53;1.70;;;30.40;39.70;;;;;;5075495;28;20594;-62
2022/08/11 12:53:54;;;;;;;4.60;1.35;;;30.50;39.40;;;;;;5075222;28;20676;-61
2022/08/11 13:04:58;;;;;;;1.27;1.13;;;30.60;38.30;;;;;;5075173;28;20242;-61
2022/08/11 13:07:28;;;;;;;4.38;1.15;;;30.60;38.60;;;;;;5075186;28;20216;-61
2022/08/11 13:09:55;;;;;;;1.30;1.13;;;30.60;38.20;;;;;;5075398;28;20311;-61
2022/08/11 13:15:10;;;;;;;3.15;1.30;;;30.80;38.20;;;;;;5075046;28;20215;-62
2022/08/11 13:17:38;;;;;;;4.20;1.42;;;30.90;38.10;;;;;;5074790;28;20560;-61
2022/08/11 13:20:08;;;;;;;2.30;1.13;;;30.80;37.90;;;;;;5074984;28;20224;-61
2022/08/11 13:22:37;;;;;;;3.72;1.35;;;30.70;38.00;;;;;;5074593;28;20225;-61
2022/08/11 13:25:05;;;;;;;1.98;1.25;;;30.70;38.10;;;;;;5074703;28;20691;-62
2022/08/11 13:27:33;;;;;;;1.48;1.35;;;30.70;37.20;;;;;;5074974;28;20209;-61
2022/08/11 13:32:46;;;;;;;1.63;1.38;;;30.70;37.40;;;;;;5074360;28;20315;-61
2022/08/11 13:35:14;;;;;;;2.28;1.52;;;30.90;37.20;;;;;;5074379;28;20205;-61
2022/08/11 13:37:45;;;;;;;2.58;1.27;;;31.10;37.00;;;;;;5074228;28;20201;-61
2022/08/11 13:40:13;;;;;;;2.05;1.30;;;31.00;36.60;;;;;;5074633;28;20334;-62
2022/08/11 13:42:41;;;;;;;1.55;1.13;;;31.00;36.30;;;;;;5074601;28;20228;-62
2022/08/11 13:45:09;;;;;;;1.88;1.20;;;31.00;36.00;;;;;;5074515;28;20220;-62
2022/08/11 13:47:37;;;;;;;2.35;1.33;;;30.90;36.50;;;;;;5074251;28;20200;-61
2022/08/11 13:50:06;;;;;;;2.38;1.20;;;30.90;36.60;;;;;;5074260;28;20224;-61
2022/08/11 13:52:34;;;;;;;2.87;1.27;;;30.90;36.90;;;;;;5075869;28;20816;-65
2022/08/11 13:55:02;;;;;;;2.88;1.25;;;31.10;36.80;;;;;;5095563;28;20208;-65
2022/08/11 13:57:32;;;;;;;1.10;1.00;;;31.20;36.70;;;;;;5093864;28;20733;-65
2022/08/11 14:00:08;;;;;;;6.70;1.23;;;31.30;36.30;;;;;;5094363;28;20311;-66
2022/08/11 14:02:37;;;;;;;3.20;1.17;;;31.40;36.30;;;;;;5094064;28;20717;-63
2022/08/11 14:05:11;;;;;;;2.63;1.20;;;31.40;36.50;;;;;;5094083;28;20638;-65
2022/08/11 14:07:41;;;;;;;1.77;1.33;;;31.40;36.70;;;;;;5093304;28;20235;-63
2022/08/11 14:10:12;;;;;;;1.65;1.00;;;31.40;36.80;;;;;;5093806;28;20262;-61
2022/08/11 14:15:32;;;;;;;2.78;1.50;;;31.40;36.50;;;;;;5095052;28;20211;-64
2022/08/11 14:18:03;;;;;;;1.85;1.45;;;31.30;36.70;;;;;;5094480;28;20315;-64
2022/08/11 14:23:15;;;;;;;2.75;1.25;;;31.10;37.10;;;;;;5094363;28;20220;-64
2022/08/11 14:28:25;;;;;;;6.97;1.58;;;31.30;36.50;;;;;;5094543;28;20204;-61
2022/08/11 14:30:55;;;;;;;2.63;1.48;;;31.20;36.60;;;;;;5094762;28;20212;-64
2022/08/11 14:33:22;;;;;;;2.75;1.30;;;31.30;36.50;;;;;;5094607;28;20204;-63
2022/08/11 14:35:49;;;;;;;3.17;1.50;;;31.30;36.50;;;;;;5094144;28;20204;-63
2022/08/11 14:38:16;;;;;;;7.05;1.80;;;31.30;36.80;;;;;;5094902;28;20226;-63
2022/08/11 14:49:00;;;;;;;2.90;1.40;;;31.20;37.00;;;;;;5086131;28;20739;-62
2022/08/11 14:51:27;;;;;;;1.65;1.30;;;31.30;36.50;;;;;;5073571;28;20584;-64
2022/08/11 14:56:34;;;;;;;2.95;1.40;;;31.40;36.20;;;;;;5073803;28;20209;-62
2022/08/11 14:56:43;;;;;;;4.97;1.40;;;31.40;36.30;;;;;;5072873;28;20209;-67
2022/08/11 14:59:11;;;;;;;3.17;1.58;;;31.40;36.30;;;;;;5075021;28;20232;-67
2022/08/11 15:04:23;;;;;;;2.97;1.33;;;31.60;35.90;;;;;;5073196;28;20606;-62
2022/08/11 15:06:52;;;;;;;6.13;1.35;;;31.60;36.10;;;;;;5073817;28;20204;-62
2022/08/11 15:09:19;;;;;;;4.05;1.45;;;31.60;35.60;;;;;;5073009;28;20261;-63
2022/08/11 15:17:16;;;;;;;1.58;1.30;;;31.50;36.50;;;;;;5073364;28;20200;-63
2022/08/11 15:24:18;;;;;;;4.57;1.10;;;31.40;36.50;;;;;;5073374;28;20236;-62
2022/08/11 15:25:16;;;;;;;3.67;1.30;;;31.30;37.20;;;;;;5072817;28;20593;-62
2022/08/11 15:38:55;;;;;;;2.45;1.35;;;30.90;37.10;;;;;;5072440;28;20744;-62
2022/08/11 15:47:02;;;;;;;3.47;1.40;;;30.90;37.00;;;;;;5073080;28;20208;-63
2022/08/11 15:49:33;;;;;;;2.45;1.33;;;30.90;37.10;;;;;;5073069;28;20606;-62
2022/08/11 15:52:05;;;;;;;2.70;1.35;;;30.80;37.00;;;;;;5073218;28;20262;-62
2022/08/11 15:54:33;;;;;;;2.45;1.38;;;30.80;37.10;;;;;;5074111;28;20204;-62
2022/08/11 15:57:02;;;;;;;2.03;1.50;;;30.80;37.20;;;;;;5073511;28;20696;-63
2022/08/11 16:05:11;;;;;;;2.80;1.58;;;30.90;37.00;;;;;;5052073;28;20232;-60
2022/08/11 16:07:40;;;;;;;2.47;1.30;;;30.90;37.10;;;;;;5051921;28;20300;-60
2022/08/11 16:10:09;;;;;;;2.72;1.30;;;30.80;37.50;;;;;;5052642;28;20205;-60
2022/08/11 16:12:41;;;;;;;2.20;1.60;;;30.80;37.30;;;;;;5072299;28;20217;-61
2022/08/11 16:17:59;;;;;;;2.70;1.52;;;30.80;37.10;;;;;;5072423;28;20207;-61
2022/08/11 16:20:28;;;;;;;2.55;1.42;;;30.70;37.40;;;;;;5072547;28;20232;-62
2022/08/11 16:22:58;;;;;;;3.92;1.70;;;30.70;37.00;;;;;;5072424;28;20286;-62
2022/08/11 16:25:26;;;;;;;2.42;1.48;;;30.70;37.40;;;;;;5072528;28;20212;-61
2022/08/11 16:27:57;;;;;;;1.77;1.23;;;30.70;37.20;;;;;;5072334;28;20250;-60
2022/08/11 16:30:28;;;;;;;2.08;1.33;;;30.70;37.40;;;;;;5072072;28;20232;-62
2022/08/11 16:32:56;;;;;;;2.60;1.30;;;30.60;37.30;;;;;;5072351;28;20212;-61
2022/08/11 16:38:37;;;;;;;2.20;1.20;;;30.60;37.70;;;;;;5048984;28;20260;-62
2022/08/11 16:41:07;;;;;;;2.30;1.38;;;30.40;38.10;;;;;;5048909;28;20260;-62
2022/08/11 16:49:13;;;;;;;3.35;1.70;;;30.30;38.10;;;;;;5071308;28;20200;-62
2022/08/11 16:51:40;;;;;;;1.77;1.58;;;30.40;38.30;;;;;;5068944;28;20228;-63
2022/08/11 16:54:07;;;;;;;3.78;1.50;;;30.30;38.80;;;;;;5070450;28;20197;-62
2022/08/11 16:56:38;;;;;;;3.30;1.50;;;30.30;38.90;;;;;;5071576;28;20205;-60
2022/08/11 16:59:13;;;;;;;6.97;3.05;;;30.30;39.00;;;;;;5071162;28;20205;-65
2022/08/11 17:01:44;;;;;;;1.85;1.30;;;30.20;39.10;;;;;;5069270;28;20232;-63
2022/08/11 17:18:10;;;;;;;4.10;1.40;;;29.90;38.90;;;;;;5073482;28;20199;-65
2022/08/11 17:20:38;;;;;;;2.13;1.33;;;29.70;38.90;;;;;;5073396;28;20236;-60
2022/08/11 17:25:51;;;;;;;6.55;1.20;;;29.60;39.10;;;;;;5074479;28;20230;-62
2022/08/11 17:28:21;;;;;;;2.40;1.40;;;29.60;39.30;;;;;;5074278;28;20205;-62
2022/08/11 17:36:22;;;;;;;1.98;1.50;;;29.40;39.50;;;;;;5074454;28;20219;-62
2022/08/11 17:38:50;;;;;;;9.02;1.63;;;29.40;39.50;;;;;;5074260;28;20220;-61
2022/08/11 17:49:39;;;;;;;1.80;1.33;;;29.10;39.80;;;;;;5074227;28;20681;-61
2022/08/11 18:00:24;;;;;;;3.25;1.67;;;28.80;40.10;;;;;;5073946;28;20203;-63
2022/08/11 18:05:42;;;;;;;4.07;1.48;;;28.60;40.50;;;;;;5073835;28;20207;-63
